PHJH METAR and TAF | Updated Today

PHJH METAR

Kapalua Airport

Kapalua Airport (PHJH) hasn't published a METAR.
We found the following current weather conditions for Napili-Honokowai from other sources.

Kapalua Airport (PHJH) METAR

  • Weather conditions right now at PHJH:
  • Present conditions: Clear
  • Clouds: Clear sky
  • Cloud cover: 4%
  • Wind: 60 at 12kts
  • Temperature: 23.6 celsius
  • Feels like: 24.3 celsius
  • Pressure: 1017mb
  • Humidity: 90%


Useful to know...

PHJH TAF

Kapalua Airport

PHJH 251721Z 2518/2618 06008KT P6SM FEW025 FEW050 FM252000 06015G22KT P6SM FEW030 SCT050 FM260600 07011KT P6SM FEW030 SCT050 AMD NOT SKED
Observation time: 2:28 hr. ago
Need help? Read our tutorial on how to read TAFs or read the parsed version below.

Parsed version of TAF for Kapalua Airport (PHJH)

  • From 25 May at 18:00 UTC, to day 26 of the month at 18:00 UTC
  • Clouds: A few at 762 meters; a few at 1524 meters
  • Wind: 60 degrees at 8
  • From day 25 of the month at 20:00 UTC
  • Clouds: A few at 914 meters; scattered at 1524 meters
  • Wind: 60 degrees at 15
  • From day 26 of the month at 06:00 UTC
  • Clouds: A few at 914 meters; scattered at 1524 meters
  • Wind: 70 degrees at 11